createdAt,value
2018-02-08T00:01:23.544Z,32.13
2018-02-08T00:03:56.702Z,33.40
2018-02-08T00:06:29.491Z,21.93
2018-02-08T00:09:01.941Z,24.93
2018-02-08T00:11:34.443Z,25.60
2018-02-08T00:14:07.800Z,25.40
2018-02-08T00:16:40.536Z,27.50
2018-02-08T00:19:13.977Z,26.03
2018-02-08T00:21:46.365Z,23.77
2018-02-08T00:24:18.841Z,28.37
2018-02-08T00:26:51.299Z,26.77
2018-02-08T00:29:24.651Z,29.03
2018-02-08T00:31:57.026Z,28.50
2018-02-08T00:34:30.527Z,29.50
2018-02-08T00:37:03.856Z,30.20
2018-02-08T00:39:36.466Z,27.57
2018-02-08T00:42:08.882Z,34.20
2018-02-08T00:44:41.603Z,25.00
2018-02-08T00:47:14.111Z,31.47
2018-02-08T00:49:46.597Z,29.37
2018-02-08T00:52:18.940Z,28.00
2018-02-08T00:54:51.370Z,27.70
2018-02-08T00:57:23.879Z,26.97
2018-02-08T00:59:56.456Z,28.27
2018-02-08T01:02:29.059Z,30.77
2018-02-08T01:05:02.649Z,28.70
2018-02-08T01:07:35.348Z,27.73
2018-02-08T01:10:08.707Z,28.03
2018-02-08T01:12:42.241Z,22.97
2018-02-08T01:15:15.325Z,30.97
2018-02-08T01:17:48.529Z,27.57
2018-02-08T01:20:22.211Z,30.33
2018-02-08T01:22:54.768Z,27.90
2018-02-08T01:25:27.941Z,32.37
2018-02-08T01:28:00.653Z,28.53
2018-02-08T01:30:33.234Z,31.13
2018-02-08T01:33:06.573Z,33.70
2018-02-08T01:35:38.986Z,27.90
2018-02-08T01:38:12.283Z,31.03
2018-02-08T01:40:44.755Z,30.07
2018-02-08T01:43:17.125Z,26.60
2018-02-08T01:45:49.589Z,30.33
2018-02-08T01:48:21.974Z,25.43
2018-02-08T01:50:54.358Z,25.90
2018-02-08T01:53:26.707Z,23.40
2018-02-08T01:55:59.257Z,23.27
2018-02-08T01:58:31.805Z,28.83
2018-02-08T02:01:04.460Z,25.57
2018-02-08T02:03:37.678Z,30.00
2018-02-08T02:06:10.499Z,36.33
2018-02-08T02:08:43.106Z,35.40
2018-02-08T02:11:15.703Z,28.33
2018-02-08T02:13:48.245Z,23.20
2018-02-08T02:16:21.426Z,27.27
2018-02-08T02:18:54.344Z,21.93
2018-02-08T02:21:27.108Z,30.67
2018-02-08T02:23:59.668Z,33.70
2018-02-08T02:26:32.236Z,25.90
2018-02-08T02:29:04.949Z,26.60
2018-02-08T02:31:37.608Z,24.73
2018-02-08T02:34:10.050Z,30.10
2018-02-08T02:36:42.646Z,35.90
2018-02-08T02:39:15.955Z,32.43
2018-02-08T02:41:48.659Z,30.77
2018-02-08T02:44:21.074Z,33.50
2018-02-08T02:46:53.574Z,30.83
2018-02-08T02:49:25.957Z,27.60
2018-02-08T02:51:58.501Z,29.93
2018-02-08T02:54:31.745Z,32.67
2018-02-08T02:57:05.360Z,33.00
2018-02-08T02:59:38.147Z,34.90
2018-02-08T03:02:10.680Z,30.17
2018-02-08T03:04:43.149Z,27.60
2018-02-08T03:07:15.720Z,31.27
2018-02-08T03:09:48.161Z,31.40
2018-02-08T03:12:21.480Z,29.07
2018-02-08T03:14:55.011Z,32.90
2018-02-08T03:17:27.745Z,30.20
2018-02-08T03:20:00.480Z,32.07
2018-02-08T03:22:33.547Z,34.37
2018-02-08T03:25:07.147Z,35.17
2018-02-08T03:27:40.281Z,29.13
2018-02-08T03:30:12.744Z,26.80
2018-02-08T03:32:45.355Z,30.70
2018-02-08T03:35:17.893Z,31.30
2018-02-08T03:37:51.256Z,27.90
2018-02-08T03:40:24.140Z,29.97
2018-02-08T03:42:57.442Z,30.10
2018-02-08T03:45:30.289Z,29.40
2018-02-08T03:48:04.422Z,29.27
2018-02-08T03:50:37.818Z,31.20
2018-02-08T03:53:10.461Z,30.33
2018-02-08T03:55:42.918Z,29.70
2018-02-08T03:58:15.410Z,24.30
2018-02-08T04:00:48.633Z,28.80
2018-02-08T04:03:21.369Z,24.30
2018-02-08T04:05:53.914Z,28.57
2018-02-08T04:08:26.434Z,26.97
2018-02-08T04:10:58.838Z,26.70
2018-02-08T04:13:31.504Z,27.83
2018-02-08T04:16:04.126Z,30.47
2018-02-08T04:18:36.640Z,25.17
2018-02-08T04:21:09.364Z,27.70
2018-02-08T04:23:41.852Z,33.07
2018-02-08T04:26:14.173Z,29.17
2018-02-08T04:28:47.565Z,29.97
2018-02-08T04:31:20.791Z,31.47
2018-02-08T04:33:53.462Z,25.07
2018-02-08T04:36:26.045Z,27.77
2018-02-08T04:39:17.457Z,29.53
2018-02-08T04:42:08.965Z,34.50
2018-02-08T04:48:06.768Z,25.97
2018-02-08T04:50:39.193Z,28.73
2018-02-08T04:53:11.595Z,28.20
2018-02-08T04:55:43.967Z,32.47
2018-02-08T04:58:17.239Z,27.93
2018-02-08T05:00:49.969Z,27.80
2018-02-08T05:03:22.614Z,23.40
2018-02-08T05:05:55.136Z,27.47
2018-02-08T05:08:27.723Z,26.97
2018-02-08T05:11:00.597Z,33.33
2018-02-08T05:13:33.069Z,30.13
2018-02-08T05:16:05.731Z,26.30
2018-02-08T05:18:38.932Z,24.57
2018-02-08T05:21:11.550Z,33.20
2018-02-08T05:23:43.940Z,31.70
2018-02-08T05:26:16.491Z,30.30
2018-02-08T05:28:49.968Z,30.27
2018-02-08T05:31:23.555Z,29.40
2018-02-08T05:33:56.600Z,26.10
2018-02-08T05:36:29.833Z,26.93
2018-02-08T05:39:04.367Z,29.80
2018-02-08T05:41:38.053Z,25.53
2018-02-08T05:44:10.660Z,29.90
2018-02-08T05:46:44.094Z,35.53
2018-02-08T05:49:16.672Z,32.83
2018-02-08T05:51:49.336Z,32.20
2018-02-08T05:54:21.750Z,34.87
2018-02-08T05:56:54.286Z,32.57
2018-02-08T05:59:26.726Z,31.80
2018-02-08T06:01:59.459Z,26.93
2018-02-08T06:04:31.871Z,39.70
2018-02-08T06:07:04.408Z,34.23
2018-02-08T06:09:36.734Z,37.73
2018-02-08T06:12:09.928Z,40.17
2018-02-08T06:14:44.134Z,32.70
2018-02-08T06:17:16.627Z,38.07
2018-02-08T06:19:49.103Z,32.50
2018-02-08T06:22:21.708Z,28.90
2018-02-08T06:24:54.116Z,28.90
2018-02-08T06:27:26.742Z,37.20
2018-02-08T06:29:59.335Z,31.03
2018-02-08T06:32:32.678Z,36.43
2018-02-08T06:35:05.608Z,29.10
2018-02-08T06:37:38.292Z,30.10
2018-02-08T06:40:10.601Z,30.17
2018-02-08T06:42:44.213Z,30.00
2018-02-08T06:45:16.787Z,36.73
2018-02-08T06:47:49.510Z,32.93
2018-02-08T06:50:22.011Z,26.47
2018-02-08T06:52:54.518Z,31.90
2018-02-08T06:55:26.868Z,30.07
2018-02-08T06:57:59.607Z,28.00
2018-02-08T07:00:32.844Z,30.97
2018-02-08T07:03:05.375Z,32.30
2018-02-08T07:05:38.006Z,32.30
2018-02-08T07:08:11.505Z,37.93
2018-02-08T07:10:44.068Z,30.90
2018-02-08T07:13:16.512Z,29.53
2018-02-08T07:15:49.914Z,31.60
2018-02-08T07:18:22.740Z,31.70
2018-02-08T07:20:55.288Z,35.37
2018-02-08T07:23:27.886Z,33.50
2018-02-08T07:26:00.297Z,40.00
2018-02-08T07:28:32.977Z,31.43
2018-02-08T07:31:06.178Z,32.20
2018-02-08T07:33:39.331Z,39.40
2018-02-08T07:36:12.704Z,35.43
2018-02-08T07:38:45.278Z,39.10
2018-02-08T07:41:18.639Z,32.20
2018-02-08T07:43:52.075Z,29.43
2018-02-08T07:46:24.947Z,28.27
2018-02-08T07:48:57.423Z,29.67
2018-02-08T07:51:29.797Z,37.80
2018-02-08T07:54:02.370Z,32.27
2018-02-08T07:56:35.660Z,32.10
2018-02-08T07:59:08.520Z,27.60
2018-02-08T08:01:40.877Z,30.20
2018-02-08T08:04:14.334Z,33.07
2018-02-08T08:06:47.586Z,27.43
2018-02-08T08:09:20.608Z,28.60
2018-02-08T08:11:52.953Z,25.90
2018-02-08T08:14:26.485Z,30.73
2018-02-08T08:16:59.685Z,31.43
2018-02-08T08:19:33.361Z,28.37
2018-02-08T08:22:06.809Z,37.43
2018-02-08T08:24:39.868Z,30.83
2018-02-08T08:27:12.390Z,34.00
2018-02-08T08:29:44.805Z,28.43
2018-02-08T08:32:17.325Z,31.67
2018-02-08T08:34:49.784Z,35.47
2018-02-08T08:37:22.098Z,29.63
2018-02-08T08:39:55.728Z,31.00
2018-02-08T08:42:29.943Z,32.43
2018-02-08T08:45:03.257Z,29.57
2018-02-08T08:47:36.583Z,31.33
2018-02-08T08:50:09.443Z,40.00
2018-02-08T08:52:41.822Z,37.13
2018-02-08T08:55:14.829Z,37.90
2018-02-08T08:57:47.917Z,26.10
2018-02-08T09:00:20.302Z,37.60
2018-02-08T09:02:52.714Z,36.40
2018-02-08T09:05:25.149Z,36.57
2018-02-08T09:07:57.904Z,32.83
2018-02-08T09:10:30.402Z,40.60
2018-02-08T09:13:03.065Z,33.67
2018-02-08T09:15:35.571Z,40.27
2018-02-08T09:18:08.306Z,32.30
2018-02-08T09:20:41.481Z,31.17
2018-02-08T09:23:14.465Z,38.27
2018-02-08T09:25:47.048Z,37.87
2018-02-08T09:28:20.414Z,30.73
2018-02-08T09:30:53.254Z,33.50
2018-02-08T09:33:25.877Z,36.80
2018-02-08T09:35:58.383Z,40.07
2018-02-08T09:38:32.284Z,37.20
2018-02-08T09:41:05.153Z,31.23
2018-02-08T09:43:37.769Z,38.57
2018-02-08T09:46:11.038Z,31.80
2018-02-08T09:48:43.823Z,35.30
2018-02-08T09:51:16.288Z,38.00
2018-02-08T09:53:48.969Z,34.00
2018-02-08T09:56:21.579Z,40.50
2018-02-08T09:58:54.817Z,29.63
2018-02-08T10:01:27.270Z,38.60
2018-02-08T10:03:59.774Z,37.43
2018-02-08T10:06:32.238Z,32.23
2018-02-08T10:09:05.531Z,36.43
2018-02-08T10:11:38.326Z,33.47
2018-02-08T10:14:11.701Z,31.60
2018-02-08T10:16:44.621Z,34.73
2018-02-08T10:19:16.940Z,36.80
2018-02-08T10:21:49.514Z,37.83
2018-02-08T10:24:21.840Z,33.03
2018-02-08T10:26:55.224Z,31.20
2018-02-08T10:29:27.733Z,28.77
2018-02-08T10:32:00.049Z,34.53
2018-02-08T10:34:32.540Z,37.40
2018-02-08T10:37:05.723Z,32.70
2018-02-08T10:39:38.447Z,37.77
2018-02-08T10:42:10.812Z,30.90
2018-02-08T10:44:43.526Z,38.43
2018-02-08T10:47:16.361Z,38.73
2018-02-08T10:49:48.758Z,31.60
2018-02-08T10:52:21.556Z,33.43
2018-02-08T10:54:54.938Z,31.77
2018-02-08T10:57:28.295Z,39.97
2018-02-08T11:00:00.862Z,37.87
2018-02-08T11:02:33.245Z,36.37
2018-02-08T11:05:05.668Z,37.17
2018-02-08T11:07:38.182Z,31.73
2018-02-08T11:10:10.752Z,41.20
2018-02-08T11:12:43.184Z,34.97
2018-02-08T11:15:15.878Z,34.50
2018-02-08T11:17:55.434Z,38.57
2018-02-08T11:20:28.034Z,38.00
2018-02-08T11:23:00.720Z,36.00
2018-02-08T11:25:34.046Z,34.00
2018-02-08T11:28:07.734Z,37.83
2018-02-08T11:30:40.298Z,30.47
2018-02-08T11:33:12.935Z,34.73
2018-02-08T11:35:46.212Z,37.37
2018-02-08T11:38:18.681Z,36.13
2018-02-08T11:40:51.402Z,32.07
2018-02-08T11:43:24.172Z,33.27
2018-02-08T11:45:57.361Z,31.13
2018-02-08T11:48:29.801Z,34.07
2018-02-08T11:51:03.085Z,33.47
2018-02-08T11:53:35.602Z,34.00
2018-02-08T11:56:08.755Z,36.73
2018-02-08T11:58:41.163Z,39.23
2018-02-08T12:01:14.441Z,38.53
2018-02-08T12:03:47.110Z,36.90
2018-02-08T12:06:19.607Z,32.73
2018-02-08T12:08:52.391Z,33.73
2018-02-08T12:11:24.887Z,31.47
2018-02-08T12:13:57.330Z,38.63
2018-02-08T12:16:29.621Z,36.27
2018-02-08T12:19:02.225Z,33.30
2018-02-08T12:21:35.415Z,33.63
2018-02-08T12:24:08.140Z,32.17
2018-02-08T12:26:40.470Z,39.37
2018-02-08T12:29:12.899Z,32.23
2018-02-08T12:31:46.205Z,33.20
2018-02-08T12:34:18.905Z,27.60
2018-02-08T12:36:51.570Z,36.63
2018-02-08T12:39:24.401Z,35.37
2018-02-08T12:41:57.557Z,30.97
2018-02-08T12:44:30.354Z,37.40
2018-02-08T12:47:02.814Z,34.37
2018-02-08T12:49:35.748Z,30.10
2018-02-08T12:52:08.141Z,32.77
2018-02-08T12:54:40.663Z,34.10
2018-02-08T12:57:13.919Z,28.30
2018-02-08T12:59:46.780Z,35.60
2018-02-08T13:02:19.991Z,37.97
2018-02-08T13:04:53.624Z,39.50
2018-02-08T13:07:26.400Z,33.47
2018-02-08T13:09:58.944Z,28.30
2018-02-08T13:12:32.155Z,40.77
2018-02-08T13:15:04.841Z,33.97
2018-02-08T13:17:37.361Z,27.50
2018-02-08T13:20:09.907Z,32.07
2018-02-08T13:22:42.397Z,35.77
2018-02-08T13:25:15.020Z,33.30
2018-02-08T13:27:47.405Z,34.50
2018-02-08T13:30:20.019Z,29.93
2018-02-08T13:32:53.166Z,28.77
2018-02-08T13:35:26.566Z,31.43
2018-02-08T13:37:59.260Z,33.97
2018-02-08T13:40:36.494Z,31.67
2018-02-08T13:43:09.957Z,34.93
2018-02-08T13:45:43.645Z,37.40
2018-02-08T13:48:22.313Z,27.73
2018-02-08T13:54:05.255Z,38.87
2018-02-08T13:56:44.649Z,35.40
2018-02-08T13:59:21.390Z,34.43
2018-02-08T14:01:54.417Z,29.23
2018-02-08T14:04:28.109Z,26.20
2018-02-08T14:07:01.107Z,29.83
2018-02-08T14:09:34.378Z,28.90
2018-02-08T14:12:06.985Z,31.60
2018-02-08T14:14:39.427Z,31.20
2018-02-08T14:17:12.009Z,27.30
2018-02-08T14:19:45.245Z,28.10
2018-02-08T14:22:18.163Z,32.10
2018-02-08T14:24:50.660Z,27.57
2018-02-08T14:27:23.085Z,36.80
2018-02-08T14:29:55.676Z,30.50
2018-02-08T14:32:28.852Z,31.80
2018-02-08T14:35:01.553Z,30.97
2018-02-08T14:37:34.211Z,28.23
2018-02-08T14:40:07.375Z,30.80
2018-02-08T14:42:40.230Z,30.87
2018-02-08T14:45:12.579Z,30.40
2018-02-08T14:47:45.887Z,34.97
2018-02-08T14:50:18.618Z,29.80
2018-02-08T14:52:51.022Z,30.50
2018-02-08T14:55:23.477Z,24.80
2018-02-08T14:57:55.853Z,28.10
2018-02-08T15:00:28.164Z,27.30
2018-02-08T15:03:01.501Z,25.20
2018-02-08T15:05:33.865Z,23.37
2018-02-08T15:08:06.284Z,31.37
2018-02-08T15:10:38.716Z,32.90
2018-02-08T15:13:11.475Z,26.43
2018-02-08T15:15:44.659Z,27.93
2018-02-08T15:18:18.439Z,35.23
2018-02-08T15:20:51.730Z,31.53
2018-02-08T15:23:24.288Z,28.03
2018-02-08T15:25:56.899Z,32.13
2018-02-08T15:28:29.389Z,37.00
2018-02-08T15:31:02.702Z,33.70
2018-02-08T15:33:36.246Z,33.00
2018-02-08T15:36:09.138Z,46.53
2018-02-08T15:38:41.535Z,35.53
2018-02-08T15:41:13.987Z,34.23
2018-02-08T15:43:46.639Z,44.83
2018-02-08T15:46:18.965Z,39.47
2018-02-08T15:48:51.676Z,33.10
2018-02-08T15:51:25.025Z,44.97
2018-02-08T15:53:57.762Z,47.50
2018-02-08T15:56:30.228Z,45.90
2018-02-08T15:59:02.925Z,39.10
2018-02-08T16:01:36.186Z,31.63
2018-02-08T16:04:08.660Z,36.37
2018-02-08T16:06:41.028Z,37.23
2018-02-08T16:09:14.289Z,43.60
2018-02-08T16:11:47.577Z,45.03
2018-02-08T16:14:20.306Z,34.17
2018-02-08T16:16:53.424Z,34.43
2018-02-08T16:19:27.093Z,44.17
2018-02-08T16:21:59.875Z,35.70
2018-02-08T16:24:32.569Z,42.87
2018-02-08T16:27:05.380Z,39.70
2018-02-08T16:29:38.103Z,42.50
2018-02-08T16:32:11.311Z,38.10
2018-02-08T16:34:43.978Z,37.43
2018-02-08T16:37:17.412Z,35.90
2018-02-08T16:39:50.817Z,40.47
2018-02-08T16:42:24.144Z,36.37
2018-02-08T16:44:56.785Z,43.83
2018-02-08T16:47:29.304Z,44.80
2018-02-08T16:50:02.220Z,45.20
2018-02-08T16:52:36.405Z,39.07
2018-02-08T16:55:09.334Z,34.17
2018-02-08T16:57:41.918Z,31.30
2018-02-08T17:00:14.401Z,28.90
2018-02-08T17:02:46.789Z,32.30
2018-02-08T17:05:20.171Z,41.70
2018-02-08T17:07:52.678Z,38.43
2018-02-08T17:10:25.324Z,37.97
2018-02-08T17:12:58.546Z,35.37
2018-02-08T17:15:30.925Z,38.13
2018-02-08T17:18:04.580Z,43.30
2018-02-08T17:20:37.366Z,44.07
2018-02-08T17:23:10.442Z,31.00
2018-02-08T17:25:43.393Z,36.00
2018-02-08T17:28:16.652Z,36.07
2018-02-08T17:30:49.326Z,28.57
2018-02-08T17:33:21.738Z,39.73
2018-02-08T17:35:55.265Z,42.13
2018-02-08T17:38:28.382Z,38.37
2018-02-08T17:41:01.013Z,38.17
2018-02-08T17:43:33.564Z,38.50
2018-02-08T17:46:05.993Z,33.47
2018-02-08T17:48:38.491Z,29.60
2018-02-08T17:51:11.074Z,40.37
2018-02-08T17:53:43.743Z,38.90
2018-02-08T17:56:16.264Z,40.50
2018-02-08T17:58:48.991Z,44.13
2018-02-08T18:01:21.739Z,42.97
2018-02-08T18:03:55.071Z,42.70
2018-02-08T18:06:27.646Z,37.33
2018-02-08T18:09:01.738Z,33.50
2018-02-08T18:11:35.333Z,37.77
2018-02-08T18:14:08.108Z,35.67
2018-02-08T18:16:41.248Z,37.90
2018-02-08T18:19:13.969Z,40.37
2018-02-08T18:21:47.074Z,36.77
2018-02-08T18:24:19.591Z,36.80
2018-02-08T18:26:52.203Z,39.10
2018-02-08T18:29:24.639Z,28.13
2018-02-08T18:31:57.400Z,40.33
2018-02-08T18:34:31.558Z,36.83
2018-02-08T18:37:04.306Z,36.00
2018-02-08T18:39:36.791Z,35.50
2018-02-08T18:42:09.347Z,35.17
2018-02-08T18:44:41.877Z,40.67
2018-02-08T18:47:14.901Z,38.63
2018-02-08T18:49:48.055Z,31.60
2018-02-08T18:52:20.772Z,33.33
2018-02-08T18:54:53.196Z,35.10
2018-02-08T18:57:25.651Z,40.30
2018-02-08T18:59:58.267Z,39.23
2018-02-08T19:02:30.864Z,40.10
2018-02-08T19:05:04.261Z,37.13
2018-02-08T19:07:36.901Z,33.67
2018-02-08T19:10:09.461Z,38.17
2018-02-08T19:12:43.102Z,34.03
2018-02-08T19:15:15.530Z,32.57
2018-02-08T19:17:47.970Z,34.07
2018-02-08T19:20:21.346Z,32.67
2018-02-08T19:22:54.156Z,27.47
2018-02-08T19:25:27.925Z,37.67
2018-02-08T19:28:01.767Z,35.70
2018-02-08T19:30:34.861Z,35.77
2018-02-08T19:33:08.687Z,42.43
2018-02-08T19:35:43.038Z,35.97
2018-02-08T19:38:17.353Z,40.50
2018-02-08T19:40:50.748Z,45.20
2018-02-08T19:43:25.370Z,39.23
2018-02-08T19:45:58.663Z,35.33
2018-02-08T19:48:33.227Z,43.90
2018-02-08T19:51:07.090Z,41.20
2018-02-08T19:53:41.669Z,35.10
2018-02-08T19:56:17.802Z,42.60
2018-02-08T19:58:53.472Z,44.13
2018-02-08T20:01:28.625Z,35.73
2018-02-08T20:04:04.617Z,43.17
2018-02-08T20:06:39.491Z,36.40
2018-02-08T20:09:14.948Z,34.67
2018-02-08T20:11:50.583Z,39.20
2018-02-08T20:14:31.771Z,34.07
2018-02-08T20:17:07.636Z,43.27
2018-02-08T20:19:43.619Z,43.77
2018-02-08T20:22:19.512Z,36.43
2018-02-08T20:24:55.317Z,33.47
2018-02-08T20:27:31.572Z,34.33
2018-02-08T20:30:07.651Z,40.87
2018-02-08T20:32:43.024Z,39.50
2018-02-08T20:35:18.617Z,35.50
2018-02-08T20:37:54.148Z,41.27
2018-02-08T20:40:29.436Z,36.23
2018-02-08T20:43:10.608Z,39.70
2018-02-08T20:45:46.531Z,33.93
2018-02-08T20:48:20.955Z,38.37
2018-02-08T20:50:56.133Z,41.23
2018-02-08T20:53:31.657Z,37.27
2018-02-08T20:56:06.963Z,47.47
2018-02-08T20:58:41.769Z,34.50
2018-02-08T21:01:17.760Z,29.87
2018-02-08T21:03:53.071Z,38.53
2018-02-08T21:06:29.122Z,37.20
2018-02-08T21:09:03.702Z,37.70
2018-02-08T21:11:37.796Z,44.23
2018-02-08T21:14:11.807Z,33.60
2018-02-08T21:16:48.569Z,36.20
2018-02-08T21:19:21.715Z,38.27
2018-02-08T21:21:54.718Z,40.40
2018-02-08T21:24:28.240Z,41.67
2018-02-08T21:27:01.351Z,45.07
2018-02-08T21:29:34.603Z,47.03
2018-02-08T21:32:08.334Z,31.13
2018-02-08T21:34:41.487Z,44.77
2018-02-08T21:37:14.754Z,34.70
2018-02-08T21:39:48.822Z,45.97
2018-02-08T21:42:21.642Z,35.20
2018-02-08T21:44:54.443Z,46.37
2018-02-08T21:47:28.318Z,39.80
2018-02-08T21:50:01.017Z,41.60
2018-02-08T21:52:33.962Z,41.47
2018-02-08T21:55:07.198Z,45.23
2018-02-08T21:57:39.624Z,49.53
2018-02-08T22:00:12.982Z,46.37
2018-02-08T22:02:45.727Z,44.37
2018-02-08T22:05:19.748Z,46.97
2018-02-08T22:07:53.290Z,48.10
2018-02-08T22:10:26.123Z,43.47
2018-02-08T22:12:59.691Z,40.30
2018-02-08T22:15:32.376Z,41.63
2018-02-08T22:18:04.809Z,41.43
2018-02-08T22:20:37.223Z,35.07
2018-02-08T22:23:10.061Z,42.03
2018-02-08T22:25:42.685Z,47.40
2018-02-08T22:28:15.228Z,37.63
2018-02-08T22:30:49.297Z,36.53
2018-02-08T22:33:22.219Z,46.00
2018-02-08T22:35:55.374Z,42.63
2018-02-08T22:38:27.919Z,42.00
2018-02-08T22:41:01.143Z,47.77
2018-02-08T22:43:34.270Z,46.63
2018-02-08T22:46:06.613Z,37.33
2018-02-08T22:48:39.229Z,47.83
2018-02-08T22:51:12.550Z,42.47
2018-02-08T22:53:44.968Z,42.73
2018-02-08T22:56:17.469Z,47.30
2018-02-08T22:58:50.689Z,42.07
2018-02-08T23:01:23.398Z,42.83
2018-02-08T23:03:56.204Z,43.67
2018-02-08T23:06:28.642Z,41.97
2018-02-08T23:09:02.725Z,48.60
2018-02-08T23:11:36.096Z,47.73
2018-02-08T23:14:09.181Z,43.10
2018-02-08T23:16:42.458Z,40.87
2018-02-08T23:19:15.069Z,35.87
2018-02-08T23:21:47.813Z,47.60
2018-02-08T23:24:21.214Z,50.30
2018-02-08T23:26:54.138Z,49.43
2018-02-08T23:29:26.631Z,40.23
2018-02-08T23:31:59.412Z,46.77
2018-02-08T23:34:32.923Z,42.77
2018-02-08T23:37:06.841Z,41.80
2018-02-08T23:39:39.313Z,47.90
2018-02-08T23:42:11.793Z,40.40
2018-02-08T23:44:44.427Z,45.00
2018-02-08T23:47:17.608Z,39.43
2018-02-08T23:49:50.427Z,39.60
2018-02-08T23:52:23.779Z,40.00
2018-02-08T23:54:56.592Z,40.57
2018-02-08T23:57:30.272Z,45.90
